createdAt,value
2017-08-11T00:04:21.791Z,89.50
2017-08-11T00:09:28.355Z,90.10
2017-08-11T00:14:31.822Z,90.80
2017-08-11T00:19:35.284Z,90.40
2017-08-11T00:24:38.468Z,90.90
2017-08-11T00:29:42.561Z,89.60
2017-08-11T00:34:45.764Z,89.80
2017-08-11T00:45:25.051Z,91.70
2017-08-11T00:50:29.278Z,92.90
2017-08-11T00:55:33.098Z,92.70
2017-08-11T01:00:36.609Z,93.30
2017-08-11T01:05:40.330Z,93.70
2017-08-11T01:10:43.515Z,93.20
2017-08-11T01:15:47.361Z,93.50
2017-08-11T01:20:51.266Z,92.90
2017-08-11T01:25:54.810Z,93.40
2017-08-11T01:30:58.094Z,92.90
2017-08-11T01:36:01.452Z,92.70
2017-08-11T01:41:05.653Z,92.10
2017-08-11T01:46:19.522Z,92.00
2017-08-11T01:56:57.522Z,92.10
2017-08-11T02:02:00.728Z,92.00
2017-08-11T02:07:03.895Z,92.60
2017-08-11T02:12:07.085Z,93.60
2017-08-11T02:17:11.129Z,92.50
2017-08-11T02:22:15.058Z,92.00
2017-08-11T02:27:18.237Z,92.00
2017-08-11T02:32:21.416Z,91.20
2017-08-11T02:37:24.595Z,90.80
2017-08-11T02:42:27.780Z,91.40
2017-08-11T02:47:30.965Z,90.10
2017-08-11T02:52:34.926Z,90.00
2017-08-11T02:57:38.220Z,90.00
2017-08-11T03:02:42.165Z,90.50
2017-08-11T03:07:45.345Z,90.60
2017-08-11T03:12:48.613Z,90.90
2017-08-11T03:17:51.805Z,91.00
2017-08-11T03:22:55.003Z,90.60
2017-08-11T03:27:58.189Z,90.30
2017-08-11T03:33:01.406Z,90.00
2017-08-11T03:38:04.582Z,90.00
2017-08-11T03:43:08.536Z,90.20
2017-08-11T03:48:11.717Z,90.20
2017-08-11T03:53:15.672Z,90.40
2017-08-11T03:58:18.956Z,90.40
2017-08-11T04:03:22.155Z,90.30
2017-08-11T04:08:26.209Z,90.20
2017-08-11T04:13:29.399Z,90.10
2017-08-11T04:18:33.079Z,90.00
2017-08-11T04:23:36.478Z,90.30
2017-08-11T04:28:39.684Z,90.20
2017-08-11T04:33:42.889Z,90.30
2017-08-11T04:38:46.088Z,90.20
2017-08-11T04:43:49.251Z,90.30
2017-08-11T04:48:53.217Z,90.30
2017-08-11T04:53:56.501Z,90.30
2017-08-11T04:58:59.859Z,90.90
2017-08-11T05:04:03.048Z,91.00
2017-08-11T05:09:07.671Z,91.30
2017-08-11T05:14:10.896Z,90.20
2017-08-11T05:19:14.086Z,91.30
2017-08-11T05:24:17.332Z,90.40
2017-08-11T05:29:20.509Z,90.40
2017-08-11T05:34:23.724Z,89.70
2017-08-11T05:39:26.926Z,89.50
2017-08-11T05:44:30.158Z,89.50
2017-08-11T05:49:33.360Z,90.60
2017-08-11T05:54:36.558Z,89.30
2017-08-11T05:59:39.753Z,90.90
2017-08-11T06:04:42.946Z,91.60
2017-08-11T06:09:46.133Z,92.60
2017-08-11T06:14:49.330Z,94.30
2017-08-11T06:19:53.323Z,97.40
2017-08-11T06:24:56.505Z,97.30
2017-08-11T06:29:59.686Z,97.30
2017-08-11T06:35:02.877Z,97.20
2017-08-11T06:40:06.835Z,98.40
2017-08-11T06:45:10.116Z,98.40
2017-08-11T06:50:14.057Z,99.60
2017-08-11T06:55:17.240Z,99.60
2017-08-11T07:00:21.392Z,99.90
2017-08-11T07:05:24.604Z,99.90
2017-08-11T07:10:27.829Z,98.80
2017-08-11T07:15:31.026Z,98.00
2017-08-11T07:20:34.214Z,96.60
2017-08-11T07:25:37.390Z,96.00
2017-08-11T07:30:40.583Z,94.60
2017-08-11T07:35:43.790Z,94.20
2017-08-11T07:40:47.035Z,96.00
2017-08-11T07:45:50.962Z,96.40
2017-08-11T07:50:54.225Z,96.40
2017-08-11T07:55:57.414Z,98.30
2017-08-11T08:01:00.608Z,96.20
2017-08-11T08:06:03.801Z,96.60
2017-08-11T08:11:07.007Z,96.10
2017-08-11T08:16:10.204Z,97.20
2017-08-11T08:21:14.160Z,96.20
2017-08-11T08:26:17.465Z,96.20
2017-08-11T08:31:20.665Z,95.20
2017-08-11T08:36:23.890Z,95.90
2017-08-11T08:41:27.082Z,93.50
2017-08-11T08:46:30.270Z,93.40
2017-08-11T08:51:33.458Z,93.50
2017-08-11T08:56:37.465Z,93.40
2017-08-11T09:01:40.714Z,93.40
2017-08-11T09:06:44.645Z,90.80
2017-08-11T09:11:47.842Z,90.90
2017-08-11T09:16:51.020Z,90.90
2017-08-11T09:21:54.211Z,90.70
2017-08-11T09:27:15.402Z,88.80
2017-08-11T09:32:46.207Z,87.10
2017-08-11T09:37:49.397Z,87.40
2017-08-11T09:42:52.608Z,88.40
2017-08-11T09:47:55.796Z,87.90
2017-08-11T09:52:59.005Z,88.00
2017-08-11T09:58:02.182Z,86.50
2017-08-11T10:03:05.385Z,87.80
2017-08-11T10:08:08.560Z,87.80
2017-08-11T10:13:12.543Z,87.70
2017-08-11T10:18:15.726Z,87.70
2017-08-11T10:23:19.050Z,88.00
2017-08-11T10:28:22.243Z,86.90
2017-08-11T10:33:25.442Z,87.10
2017-08-11T10:38:28.602Z,88.00
2017-08-11T10:43:31.800Z,89.60
2017-08-11T10:48:35.005Z,91.20
2017-08-11T10:53:38.178Z,91.40
2017-08-11T10:58:41.342Z,91.30
2017-08-11T11:03:44.521Z,91.80
2017-08-11T11:08:47.718Z,92.80
2017-08-11T11:13:50.923Z,95.60
2017-08-11T11:18:54.245Z,95.70
2017-08-11T11:23:57.431Z,94.90
2017-08-11T11:29:00.644Z,95.00
2017-08-11T11:34:03.826Z,96.20
2017-08-11T11:39:07.000Z,93.40
2017-08-11T11:44:10.958Z,93.90
2017-08-11T11:49:14.142Z,94.60
2017-08-11T11:54:18.113Z,94.10
2017-08-11T11:59:21.390Z,94.20
2017-08-11T12:04:25.278Z,95.90
2017-08-11T12:09:28.463Z,95.80
2017-08-11T12:14:31.650Z,95.90
2017-08-11T12:19:34.818Z,95.20
2017-08-11T12:24:37.990Z,95.20
2017-08-11T12:29:41.179Z,95.40
2017-08-11T12:34:44.370Z,95.70
2017-08-11T12:39:47.577Z,97.10
2017-08-11T12:44:50.785Z,96.90
2017-08-11T12:49:53.991Z,99.10
2017-08-11T12:54:57.176Z,97.70
2017-08-11T13:00:01.133Z,99.90
2017-08-11T13:05:04.327Z,99.90
2017-08-11T13:10:07.535Z,99.90
2017-08-11T13:15:10.723Z,99.60
2017-08-11T13:20:14.683Z,99.30
2017-08-11T13:25:17.865Z,99.40
2017-08-11T13:30:21.172Z,98.00
2017-08-11T13:35:25.142Z,98.30
2017-08-11T13:40:28.329Z,98.30
2017-08-11T13:45:31.554Z,96.80
2017-08-11T13:50:34.737Z,97.50
2017-08-11T13:55:37.995Z,98.10
2017-08-11T14:00:41.195Z,97.90
2017-08-11T14:05:44.381Z,96.50
2017-08-11T14:10:47.567Z,96.00
2017-08-11T14:15:50.757Z,95.60
2017-08-11T14:20:53.931Z,94.50
2017-08-11T14:25:57.133Z,92.00
2017-08-11T14:31:00.335Z,92.60
2017-08-11T14:36:03.593Z,91.80
2017-08-11T14:41:06.798Z,92.90
2017-08-11T14:46:09.986Z,92.60
2017-08-11T14:51:13.897Z,88.90
2017-08-11T14:56:17.840Z,91.90
2017-08-11T15:01:21.064Z,91.90
2017-08-11T15:06:24.272Z,87.00
2017-08-11T15:11:27.455Z,87.60
2017-08-11T15:16:31.481Z,85.60
2017-08-11T15:21:35.431Z,87.40
2017-08-11T15:26:38.650Z,87.40
2017-08-11T15:31:41.838Z,90.20
2017-08-11T15:36:45.026Z,86.40
2017-08-11T15:41:48.280Z,88.40
2017-08-11T15:46:51.473Z,88.10
2017-08-11T15:51:54.702Z,89.90
2017-08-11T15:56:57.922Z,89.10
2017-08-11T16:02:01.509Z,87.70
2017-08-11T16:07:04.977Z,87.30
2017-08-11T16:12:08.182Z,89.20
2017-08-11T16:17:11.350Z,90.10
2017-08-11T16:22:14.655Z,91.10
2017-08-11T16:27:17.869Z,91.10
2017-08-11T16:32:21.070Z,92.10
2017-08-11T16:37:24.309Z,90.00
2017-08-11T16:42:27.717Z,89.70
2017-08-11T16:47:30.910Z,90.60
2017-08-11T16:52:34.099Z,91.50
2017-08-11T16:57:37.313Z,92.70
2017-08-11T17:02:40.518Z,91.30
2017-08-11T17:07:43.711Z,92.40
2017-08-11T17:12:46.912Z,91.80
2017-08-11T17:17:50.097Z,91.60
2017-08-11T17:22:53.298Z,93.60
2017-08-11T17:27:57.314Z,92.70
2017-08-11T17:33:01.275Z,93.70
2017-08-11T17:38:05.464Z,93.70
2017-08-11T17:43:08.762Z,91.90
2017-08-11T17:48:11.947Z,93.80
2017-08-11T17:53:15.140Z,93.30
2017-08-11T17:58:18.321Z,93.50
2017-08-11T18:03:21.555Z,93.60
2017-08-11T18:08:24.797Z,93.70
2017-08-11T18:13:27.985Z,95.80
2017-08-11T18:18:31.188Z,95.90
2017-08-11T18:23:34.381Z,95.60
2017-08-11T18:28:37.868Z,96.00
2017-08-11T18:33:41.336Z,96.50
2017-08-11T18:38:44.510Z,97.50
2017-08-11T18:43:47.761Z,97.90
2017-08-11T18:48:50.980Z,97.80
2017-08-11T18:53:54.938Z,99.70
2017-08-11T18:58:58.661Z,99.40
2017-08-11T19:04:02.080Z,99.90
2017-08-11T19:09:05.517Z,99.60
2017-08-11T19:14:08.711Z,99.20
2017-08-11T19:19:11.925Z,99.40
2017-08-11T19:24:15.326Z,99.60
2017-08-11T19:29:18.570Z,99.30
2017-08-11T19:34:21.816Z,99.90
2017-08-11T19:39:25.012Z,99.90
2017-08-11T19:44:28.993Z,99.90
2017-08-11T19:49:32.205Z,99.90
2017-08-11T19:54:35.382Z,99.90
2017-08-11T19:59:38.601Z,99.90
2017-08-11T20:04:41.789Z,99.90
2017-08-11T20:09:44.965Z,99.90
2017-08-11T20:20:23.614Z,99.90
2017-08-11T20:25:27.208Z,99.90
2017-08-11T20:30:30.723Z,99.90
2017-08-11T20:35:33.930Z,99.90
2017-08-11T20:40:37.721Z,99.90
2017-08-11T20:45:41.100Z,99.90
2017-08-11T20:50:45.366Z,99.90
2017-08-11T20:55:48.566Z,99.90
2017-08-11T21:00:51.751Z,99.90
2017-08-11T21:05:55.168Z,99.90
2017-08-11T21:10:59.068Z,99.90
2017-08-11T21:16:02.400Z,99.90
2017-08-11T21:21:06.140Z,99.90
2017-08-11T21:26:09.729Z,99.90
2017-08-11T21:31:12.941Z,99.90
2017-08-11T21:36:16.127Z,99.90
2017-08-11T21:41:20.091Z,99.90
2017-08-11T21:46:23.299Z,99.90
2017-08-11T21:51:26.491Z,99.90
2017-08-11T21:56:29.680Z,99.90
2017-08-11T22:01:33.681Z,99.90
2017-08-11T22:06:36.865Z,99.90
2017-08-11T22:11:40.090Z,99.90
2017-08-11T22:16:43.293Z,99.90
2017-08-11T22:21:46.489Z,99.90
2017-08-11T22:26:49.694Z,99.90
2017-08-11T22:31:52.950Z,99.90
2017-08-11T22:36:56.173Z,99.90
2017-08-11T22:41:59.464Z,99.90
2017-08-11T22:47:03.425Z,99.90
2017-08-11T22:52:06.686Z,99.90
2017-08-11T22:57:09.880Z,99.90
2017-08-11T23:02:13.837Z,99.90
2017-08-11T23:07:17.038Z,99.90
2017-08-11T23:12:20.210Z,99.90
2017-08-11T23:17:23.436Z,99.90
2017-08-11T23:22:27.419Z,99.90
2017-08-11T23:27:30.634Z,99.90
2017-08-11T23:32:33.839Z,99.90
2017-08-11T23:37:37.015Z,99.90
2017-08-11T23:42:40.194Z,99.90
2017-08-11T23:47:44.148Z,99.90
2017-08-11T23:52:47.332Z,99.90
2017-08-11T23:57:50.520Z,99.90
